Time;durP1;ratioP1;P1;durP2;ratioP2;P2;SDS_P1;SDS_P2;PMS_P1;PMS_P2;Temp;Humidity;BMP_temperature;BMP_pressure;BME280_temperature;BME280_humidity;BME280_pressure;Samples;Min_cycle;Max_cycle;Signal;HPM_P1;HPM_P2
2023/04/07 00:00:18;;;;;;;3.25;3.05;;;8.20;99.90;;;;;;5093271;28;20051;-81
2023/04/07 00:02:44;;;;;;;2.80;2.70;;;8.20;99.90;;;;;;5076607;28;20040;-81
2023/04/07 00:05:09;;;;;;;3.10;2.90;;;8.10;99.90;;;;;;5093168;28;20094;-81
2023/04/07 00:07:35;;;;;;;3.00;2.80;;;8.10;99.90;;;;;;5076463;28;20119;-81
2023/04/07 00:10:01;;;;;;;3.30;3.10;;;8.10;99.90;;;;;;5093042;28;20036;-81
2023/04/07 00:12:26;;;;;;;3.03;2.83;;;8.10;99.90;;;;;;5093408;28;20113;-81
2023/04/07 00:14:52;;;;;;;3.30;3.10;;;8.10;99.90;;;;;;5094545;28;20067;-81
2023/04/07 00:17:17;;;;;;;3.38;3.17;;;8.10;99.90;;;;;;5094500;28;20438;-81
2023/04/07 00:19:43;;;;;;;3.40;3.10;;;8.00;99.90;;;;;;5093216;28;20043;-81
2023/04/07 00:22:09;;;;;;;3.40;3.20;;;8.00;99.90;;;;;;5076239;28;20381;-81
2023/04/07 00:24:35;;;;;;;3.20;3.00;;;8.10;99.90;;;;;;5092944;28;20051;-81
2023/04/07 00:27:01;;;;;;;3.10;2.90;;;8.10;99.90;;;;;;5092834;28;20040;-81
2023/04/07 00:29:26;;;;;;;3.15;2.95;;;8.00;99.90;;;;;;5093110;28;20502;-81
2023/04/07 00:31:52;;;;;;;3.03;2.83;;;8.10;99.90;;;;;;5092812;28;20123;-81
2023/04/07 00:34:18;;;;;;;2.90;2.70;;;8.10;99.90;;;;;;5092643;28;20072;-81
2023/04/07 00:36:43;;;;;;;3.00;2.80;;;8.10;99.90;;;;;;5093702;28;20040;-81
2023/04/07 00:39:09;;;;;;;3.03;2.83;;;8.10;99.90;;;;;;5092499;28;20496;-81
2023/04/07 00:41:35;;;;;;;3.00;2.80;;;8.10;99.90;;;;;;5092768;28;20397;-81
2023/04/07 00:44:01;;;;;;;3.22;3.03;;;8.10;99.90;;;;;;5092822;28;20044;-81
2023/04/07 00:46:27;;;;;;;3.58;3.38;;;8.10;99.90;;;;;;5075688;28;20476;-82
2023/04/07 00:48:53;;;;;;;2.80;2.70;;;8.10;99.90;;;;;;5126730;27;20038;-82
2023/04/07 00:51:21;;;;;;;3.40;3.20;;;8.00;99.90;;;;;;5092446;28;20454;-82
2023/04/07 00:53:48;;;;;;;3.40;3.20;;;8.10;99.90;;;;;;5092412;28;20040;-82
2023/04/07 00:56:14;;;;;;;3.35;3.15;;;8.10;99.90;;;;;;5075402;28;20044;-82
2023/04/07 00:58:39;;;;;;;3.50;3.30;;;8.00;99.90;;;;;;5092251;28;20036;-82
2023/04/07 01:01:15;;;;;;;3.50;3.30;;;8.00;99.90;;;;;;5092510;28;20062;-82
2023/04/07 01:03:46;;;;;;;3.50;3.30;;;8.10;99.90;;;;;;5092241;28;20036;-82
2023/04/07 01:06:16;;;;;;;4.03;3.72;;;8.10;99.90;;;;;;5092870;28;20388;-82
2023/04/07 01:08:49;;;;;;;3.63;3.40;;;8.00;99.90;;;;;;5092278;28;20068;-82
2023/04/07 01:11:25;;;;;;;3.45;3.25;;;8.00;99.90;;;;;;5094307;28;20360;-82
2023/04/07 01:13:52;;;;;;;3.38;3.17;;;8.00;99.90;;;;;;5093797;28;20036;-82
2023/04/07 01:16:41;;;;;;;3.88;3.67;;;8.00;99.90;;;;;;5092104;28;20048;-83
2023/04/07 01:19:31;;;;;;;3.70;3.50;;;8.00;99.90;;;;;;5075220;28;20040;-82
2023/04/07 01:21:57;;;;;;;3.92;3.70;;;8.00;99.90;;;;;;5075546;28;20144;-82
2023/04/07 01:24:55;;;;;;;3.80;3.60;;;8.00;99.90;;;;;;5093654;28;20051;-82
2023/04/07 01:27:38;;;;;;;4.43;4.13;;;8.00;99.90;;;;;;5083880;28;20106;-82
2023/04/07 01:30:07;;;;;;;3.78;3.58;;;7.90;99.90;;;;;;5075371;28;20059;-82
2023/04/07 01:32:35;;;;;;;3.67;3.47;;;8.00;99.90;;;;;;5093691;28;20032;-82
2023/04/07 01:35:03;;;;;;;4.10;3.90;;;7.90;99.90;;;;;;5092293;28;20044;-83
2023/04/07 01:37:30;;;;;;;3.92;3.72;;;7.90;99.90;;;;;;5093309;28;20059;-82
2023/04/07 01:39:56;;;;;;;4.22;3.95;;;7.90;99.90;;;;;;5093111;28;20572;-82
2023/04/07 01:42:22;;;;;;;3.90;3.65;;;7.90;99.90;;;;;;5092822;28;20076;-81
2023/04/07 01:44:49;;;;;;;3.60;3.40;;;7.90;99.90;;;;;;5091897;28;20055;-81
2023/04/07 01:47:16;;;;;;;4.10;3.90;;;7.80;99.90;;;;;;5091895;28;20206;-81
2023/04/07 01:49:43;;;;;;;4.10;3.90;;;7.80;99.90;;;;;;5075230;28;20035;-81
2023/04/07 01:52:09;;;;;;;3.75;3.55;;;7.90;99.90;;;;;;5091746;28;20040;-81
2023/04/07 01:54:36;;;;;;;5.20;4.88;;;7.90;99.90;;;;;;5093348;28;20042;-81
2023/04/07 01:57:02;;;;;;;4.65;4.35;;;7.90;99.90;;;;;;5093061;28;20442;-81
2023/04/07 01:59:29;;;;;;;4.28;3.97;;;7.80;99.90;;;;;;5091733;28;20050;-81
2023/04/07 02:01:55;;;;;;;4.18;3.90;;;7.80;99.90;;;;;;5093261;28;20119;-81
2023/04/07 02:04:31;;;;;;;4.00;3.80;;;7.90;99.90;;;;;;5074796;28;20140;-81
2023/04/07 02:07:05;;;;;;;4.20;4.00;;;7.80;99.90;;;;;;5093167;28;20037;-81
2023/04/07 02:09:32;;;;;;;4.13;3.90;;;7.90;99.90;;;;;;5074817;28;20089;-81
2023/04/07 02:12:00;;;;;;;4.65;4.35;;;7.80;99.90;;;;;;5091604;28;20055;-81
2023/04/07 02:14:27;;;;;;;4.78;4.47;;;7.80;99.90;;;;;;5093237;28;20047;-81
2023/04/07 02:16:54;;;;;;;3.90;3.70;;;7.80;99.90;;;;;;5091676;28;20044;-81
2023/04/07 02:19:20;;;;;;;4.07;3.85;;;7.90;99.90;;;;;;5096837;28;20055;-81
2023/04/07 02:21:47;;;;;;;5.13;4.72;;;7.90;99.90;;;;;;5095285;28;20043;-81
2023/04/07 02:24:13;;;;;;;4.88;4.47;;;7.90;99.90;;;;;;5129587;27;20044;-81
2023/04/07 02:26:38;;;;;;;4.40;4.10;;;7.80;99.90;;;;;;5129362;27;20507;-81
2023/04/07 02:29:05;;;;;;;5.15;4.85;;;7.80;99.90;;;;;;5078585;28;20121;-81
2023/04/07 02:31:30;;;;;;;4.95;4.65;;;7.80;99.90;;;;;;5095301;28;20052;-81
2023/04/07 02:33:56;;;;;;;4.13;3.90;;;7.80;99.90;;;;;;5095352;28;20032;-81
2023/04/07 02:36:22;;;;;;;5.78;5.38;;;7.80;99.90;;;;;;5095017;28;20051;-81
2023/04/07 02:38:48;;;;;;;5.32;5.00;;;7.80;99.90;;;;;;5096087;28;20322;-81
2023/04/07 02:41:13;;;;;;;4.45;4.15;;;7.80;99.90;;;;;;5094915;28;20055;-81
2023/04/07 02:43:39;;;;;;;4.15;3.85;;;7.80;99.90;;;;;;5094827;28;20044;-81
2023/04/07 02:46:05;;;;;;;4.43;4.13;;;7.70;99.90;;;;;;5095948;28;20517;-81
2023/04/07 02:48:31;;;;;;;4.18;3.88;;;7.70;99.90;;;;;;5096286;28;20442;-81
2023/04/07 02:50:57;;;;;;;4.10;3.90;;;7.80;99.90;;;;;;5096206;28;20107;-81
2023/04/07 02:53:23;;;;;;;4.18;3.92;;;7.80;99.90;;;;;;5094829;28;20047;-81
2023/04/07 02:55:48;;;;;;;3.85;3.65;;;7.70;99.90;;;;;;5096158;28;20046;-81
2023/04/07 02:58:14;;;;;;;3.90;3.70;;;7.80;99.90;;;;;;5094557;28;20123;-81
2023/04/07 03:00:39;;;;;;;4.47;4.15;;;7.80;99.90;;;;;;5096074;28;20458;-81
2023/04/07 03:03:05;;;;;;;4.03;3.83;;;7.90;99.90;;;;;;5094446;28;20453;-81
2023/04/07 03:05:31;;;;;;;4.13;3.92;;;7.90;99.90;;;;;;5128673;27;20047;-80
2023/04/07 03:07:57;;;;;;;4.80;4.50;;;7.80;99.90;;;;;;5128439;27;20464;-81
2023/04/07 03:10:22;;;;;;;4.30;4.00;;;7.70;99.90;;;;;;5094335;28;20072;-81
2023/04/07 03:12:48;;;;;;;3.58;3.38;;;7.90;99.90;;;;;;5077546;28;20055;-81
2023/04/07 03:15:14;;;;;;;3.80;3.60;;;7.80;99.90;;;;;;5128430;27;20040;-81
2023/04/07 03:17:39;;;;;;;3.90;3.63;;;7.80;99.90;;;;;;5077399;28;20448;-82
2023/04/07 03:20:06;;;;;;;3.50;3.30;;;7.80;99.90;;;;;;5094575;28;20044;-81
2023/04/07 03:22:32;;;;;;;3.78;3.58;;;7.80;99.90;;;;;;5095679;28;20155;-81
2023/04/07 03:24:57;;;;;;;3.60;3.40;;;7.80;99.90;;;;;;5094053;28;20135;-82
2023/04/07 03:27:23;;;;;;;3.80;3.60;;;7.80;99.90;;;;;;5095581;28;20063;-81
2023/04/07 03:29:50;;;;;;;3.70;3.40;;;7.90;99.90;;;;;;5094666;28;20040;-81
2023/04/07 03:32:15;;;;;;;3.60;3.40;;;7.80;99.90;;;;;;5095445;28;20115;-81
2023/04/07 03:34:41;;;;;;;3.55;3.35;;;7.80;99.90;;;;;;5094563;28;20123;-81
2023/04/07 03:37:07;;;;;;;3.70;3.50;;;7.80;99.90;;;;;;5095223;28;20391;-81
2023/04/07 03:39:36;;;;;;;4.03;3.72;;;7.80;99.90;;;;;;5095578;28;20166;-81
2023/04/07 03:42:02;;;;;;;3.70;3.50;;;7.80;99.90;;;;;;5093674;28;20114;-81
2023/04/07 03:44:27;;;;;;;3.90;3.67;;;7.70;99.90;;;;;;5095466;28;20032;-81
2023/04/07 03:46:53;;;;;;;3.67;3.47;;;7.70;99.90;;;;;;5095211;28;20314;-82
2023/04/07 03:49:19;;;;;;;3.50;3.30;;;7.70;99.90;;;;;;5093614;28;20038;-82
2023/04/07 03:51:44;;;;;;;3.60;3.40;;;7.80;99.90;;;;;;5076809;28;20040;-82
2023/04/07 03:54:10;;;;;;;3.72;3.53;;;7.80;99.90;;;;;;5093610;28;20040;-82
2023/04/07 03:56:36;;;;;;;3.60;3.40;;;7.80;99.90;;;;;;5127855;27;20051;-82
2023/04/07 03:59:02;;;;;;;4.32;4.03;;;7.70;99.90;;;;;;5093732;28;20051;-82
2023/04/07 04:01:27;;;;;;;3.60;3.40;;;7.70;99.90;;;;;;5093372;28;20055;-82
2023/04/07 04:03:53;;;;;;;3.70;3.50;;;7.80;99.90;;;;;;5093516;28;20051;-81
2023/04/07 04:06:19;;;;;;;3.78;3.50;;;7.80;99.90;;;;;;5076360;28;20623;-82
2023/04/07 04:08:44;;;;;;;3.80;3.60;;;7.70;99.90;;;;;;5093256;28;20437;-81
2023/04/07 04:11:10;;;;;;;3.53;3.33;;;7.70;99.90;;;;;;5093570;28;20136;-81
2023/04/07 04:13:36;;;;;;;3.38;3.17;;;7.70;99.90;;;;;;5094692;28;20116;-81
2023/04/07 04:16:02;;;;;;;3.90;3.70;;;7.70;99.90;;;;;;5094616;28;20067;-81
2023/04/07 04:18:27;;;;;;;3.95;3.70;;;7.80;99.90;;;;;;5076070;28;20035;-81
2023/04/07 04:20:53;;;;;;;3.60;3.40;;;7.70;99.90;;;;;;5094221;28;20073;-81
2023/04/07 04:23:18;;;;;;;3.58;3.38;;;7.70;99.90;;;;;;5092896;28;20074;-81
2023/04/07 04:25:44;;;;;;;3.53;3.33;;;7.70;99.90;;;;;;5126830;27;20055;-81
2023/04/07 04:28:09;;;;;;;3.63;3.33;;;7.70;99.90;;;;;;5094340;28;20065;-82
2023/04/07 04:30:35;;;;;;;3.40;3.20;;;7.60;99.90;;;;;;5092793;28;20058;-81
2023/04/07 04:33:01;;;;;;;3.38;3.17;;;7.60;99.90;;;;;;5094041;28;20032;-82
2023/04/07 04:35:27;;;;;;;3.35;3.15;;;7.70;99.90;;;;;;5094251;28;20040;-81
2023/04/07 04:37:53;;;;;;;3.38;3.17;;;7.70;99.90;;;;;;5075578;28;20458;-81
2023/04/07 04:40:19;;;;;;;3.83;3.55;;;7.60;99.90;;;;;;5075678;28;20082;-81
2023/04/07 04:42:44;;;;;;;3.10;2.90;;;7.70;99.90;;;;;;5092654;28;20032;-81
2023/04/07 04:45:10;;;;;;;3.40;3.20;;;7.70;99.90;;;;;;5092948;28;20093;-81
2023/04/07 04:47:37;;;;;;;3.67;3.47;;;7.70;99.90;;;;;;5094133;28;20472;-81
2023/04/07 04:50:05;;;;;;;3.28;3.08;;;7.70;99.90;;;;;;5092446;28;20044;-81
2023/04/07 04:52:31;;;;;;;3.58;3.38;;;7.70;99.90;;;;;;5092638;28;20127;-81
2023/04/07 04:54:56;;;;;;;3.40;3.20;;;7.70;99.90;;;;;;5092416;28;20126;-81
2023/04/07 04:57:22;;;;;;;3.30;3.10;;;7.80;99.90;;;;;;5092437;28;20043;-81
2023/04/07 04:59:47;;;;;;;3.38;3.17;;;7.70;99.90;;;;;;5092367;28;20043;-81
2023/04/07 05:02:13;;;;;;;3.30;3.10;;;7.70;99.90;;;;;;5093872;28;20046;-81
2023/04/07 05:04:39;;;;;;;3.47;3.28;;;7.70;99.90;;;;;;5092335;28;20040;-81
2023/04/07 05:07:04;;;;;;;3.15;2.95;;;7.70;99.90;;;;;;5093674;28;20048;-81
2023/04/07 05:09:30;;;;;;;3.28;3.08;;;7.60;99.90;;;;;;5092539;28;20040;-81
2023/04/07 05:11:56;;;;;;;3.50;3.30;;;7.70;99.90;;;;;;5093704;28;20043;-81
2023/04/07 05:14:22;;;;;;;3.60;3.40;;;7.70;99.90;;;;;;5093757;28;20094;-81
2023/04/07 05:16:48;;;;;;;3.78;3.58;;;7.70;99.90;;;;;;5092164;28;20426;-81
2023/04/07 05:19:14;;;;;;;3.45;3.25;;;7.70;99.90;;;;;;5093465;28;20043;-81
2023/04/07 05:21:39;;;;;;;3.33;3.13;;;7.60;99.90;;;;;;5092114;28;20044;-81
2023/04/07 05:24:05;;;;;;;3.55;3.35;;;7.70;99.90;;;;;;5075306;28;20377;-81
2023/04/07 05:26:31;;;;;;;3.33;3.13;;;7.60;99.90;;;;;;5093536;28;20043;-81
2023/04/07 05:28:56;;;;;;;3.30;3.10;;;7.60;99.90;;;;;;5092006;28;20071;-81
2023/04/07 05:31:22;;;;;;;3.50;3.30;;;7.60;99.90;;;;;;5094327;28;20032;-81
2023/04/07 05:33:47;;;;;;;3.50;3.30;;;7.60;99.90;;;;;;5093353;28;20509;-81
2023/04/07 05:36:13;;;;;;;3.78;3.50;;;7.60;99.90;;;;;;5075267;28;20079;-80
2023/04/07 05:38:39;;;;;;;3.50;3.30;;;7.60;99.90;;;;;;5093027;28;20040;-80
2023/04/07 05:41:05;;;;;;;3.28;3.08;;;7.60;99.90;;;;;;5092336;28;20040;-80
2023/04/07 05:43:30;;;;;;;3.40;3.20;;;7.60;99.90;;;;;;5092336;28;20028;-80
2023/04/07 05:45:56;;;;;;;3.75;3.55;;;7.60;99.90;;;;;;5093364;28;20036;-80
2023/04/07 05:48:22;;;;;;;3.42;3.22;;;7.70;99.90;;;;;;5091867;28;20391;-80
2023/04/07 05:50:47;;;;;;;3.65;3.45;;;7.60;99.90;;;;;;5092076;28;20028;-80
2023/04/07 05:53:14;;;;;;;3.50;3.30;;;7.60;99.90;;;;;;5094474;28;20085;-81
2023/04/07 05:55:42;;;;;;;3.80;3.60;;;7.60;99.90;;;;;;5097336;28;20047;-81
2023/04/07 05:58:08;;;;;;;3.67;3.47;;;7.60;99.90;;;;;;5097504;28;20040;-81
2023/04/07 06:00:33;;;;;;;3.47;3.28;;;7.60;99.90;;;;;;5097518;28;20039;-80
2023/04/07 06:03:00;;;;;;;3.50;3.30;;;7.60;99.90;;;;;;5078853;28;20051;-79
2023/04/07 06:05:26;;;;;;;3.80;3.60;;;7.60;99.90;;;;;;5078593;28;20062;-80
2023/04/07 06:07:51;;;;;;;3.63;3.42;;;7.70;99.90;;;;;;5095774;28;20047;-82
2023/04/07 06:10:17;;;;;;;3.20;3.00;;;7.70;99.90;;;;;;5097337;28;20119;-81
2023/04/07 06:12:43;;;;;;;3.30;3.10;;;7.70;99.90;;;;;;5096130;28;20123;-81
2023/04/07 06:15:09;;;;;;;3.35;3.15;;;7.70;99.90;;;;;;5129481;27;20046;-81
2023/04/07 06:17:34;;;;;;;3.17;2.97;;;7.80;99.90;;;;;;5095461;28;20134;-80
2023/04/07 06:20:00;;;;;;;3.10;2.90;;;7.80;99.90;;;;;;5095248;28;20040;-77
2023/04/07 06:22:25;;;;;;;3.60;3.40;;;7.70;99.90;;;;;;5096775;28;20035;-75
2023/04/07 06:24:51;;;;;;;3.63;3.42;;;7.80;99.90;;;;;;5095123;28;20035;-73
2023/04/07 06:27:17;;;;;;;3.40;3.20;;;7.90;99.90;;;;;;5078135;28;20040;-73
2023/04/07 06:29:43;;;;;;;4.28;3.97;;;7.80;99.90;;;;;;5078216;28;20078;-86
2023/04/07 06:32:09;;;;;;;3.83;3.63;;;7.80;99.90;;;;;;5095609;28;20040;-88
2023/04/07 06:34:35;;;;;;;4.20;3.90;;;7.90;99.90;;;;;;5097847;28;20031;-91
2023/04/07 06:37:01;;;;;;;3.70;3.50;;;7.90;99.90;;;;;;5095791;28;20040;-88
2023/04/07 06:39:27;;;;;;;3.42;3.22;;;7.90;99.90;;;;;;5096341;28;20047;-91
2023/04/07 06:41:52;;;;;;;3.60;3.40;;;8.00;99.90;;;;;;5097693;28;20036;-91
2023/04/07 06:44:18;;;;;;;3.35;3.15;;;8.00;99.90;;;;;;5095651;28;20039;-85
2023/04/07 06:46:46;;;;;;;3.60;3.40;;;8.00;99.90;;;;;;5095219;28;20090;-83
2023/04/07 06:49:12;;;;;;;3.20;3.00;;;8.00;99.90;;;;;;5095242;28;20036;-91
2023/04/07 06:51:37;;;;;;;3.65;3.45;;;8.00;99.90;;;;;;5096671;28;20050;-86
2023/04/07 06:54:04;;;;;;;3.20;3.00;;;8.10;99.90;;;;;;5095192;28;20040;-85
2023/04/07 06:56:30;;;;;;;3.33;3.13;;;8.10;99.90;;;;;;5094602;28;20048;-88
2023/04/07 06:58:55;;;;;;;3.10;2.90;;;8.10;99.90;;;;;;5094650;28;20384;-84
2023/04/07 07:01:21;;;;;;;3.30;3.10;;;8.20;99.90;;;;;;5078493;28;20047;-75
2023/04/07 07:03:47;;;;;;;3.50;3.28;;;8.20;99.90;;;;;;5093307;28;20036;-79
2023/04/07 07:06:12;;;;;;;3.58;3.38;;;8.10;99.90;;;;;;5077469;28;20043;-75
2023/04/07 07:08:38;;;;;;;3.00;2.80;;;8.20;99.90;;;;;;5096239;28;20455;-78
2023/04/07 07:11:04;;;;;;;3.00;2.80;;;8.20;99.90;;;;;;5077558;28;20055;-76
2023/04/07 07:13:30;;;;;;;3.10;2.90;;;8.30;99.90;;;;;;5094394;28;20046;-83
2023/04/07 07:15:55;;;;;;;3.28;3.08;;;8.40;99.90;;;;;;5095958;28;20047;-83
2023/04/07 07:18:21;;;;;;;2.90;2.70;;;8.40;99.90;;;;;;5094278;28;20036;-83
2023/04/07 07:20:46;;;;;;;3.10;2.90;;;8.40;99.90;;;;;;5094281;28;20114;-83
2023/04/07 07:23:12;;;;;;;2.95;2.80;;;8.50;99.90;;;;;;5094241;28;20086;-83
2023/04/07 07:25:38;;;;;;;2.83;2.63;;;8.50;99.90;;;;;;5095658;28;20093;-83
2023/04/07 07:28:03;;;;;;;2.40;2.30;;;8.50;99.90;;;;;;5094089;28;20039;-84
2023/04/07 07:30:29;;;;;;;2.70;2.60;;;8.50;99.90;;;;;;5095636;28;20085;-78
2023/04/07 07:32:55;;;;;;;2.58;2.47;;;8.50;99.90;;;;;;5077109;28;20511;-71
2023/04/07 07:35:21;;;;;;;2.60;2.50;;;8.60;99.90;;;;;;5095088;28;20043;-69
2023/04/07 07:37:47;;;;;;;2.50;2.40;;;8.60;99.90;;;;;;5095268;28;20395;-72
2023/04/07 07:40:13;;;;;;;2.30;2.20;;;8.60;99.90;;;;;;5093773;28;20094;-71
2023/04/07 07:42:39;;;;;;;2.30;2.20;;;8.60;99.90;;;;;;5095305;28;20111;-70
2023/04/07 07:45:05;;;;;;;2.13;2.03;;;8.70;99.90;;;;;;5127807;27;20128;-70
2023/04/07 07:47:31;;;;;;;2.25;2.15;;;8.70;99.90;;;;;;5093700;28;20133;-70
2023/04/07 07:49:57;;;;;;;2.60;2.47;;;8.80;99.90;;;;;;5093919;28;20025;-71
2023/04/07 07:52:23;;;;;;;2.47;2.38;;;8.80;99.90;;;;;;5093776;28;20383;-70
2023/04/07 07:54:50;;;;;;;2.47;2.38;;;8.80;99.90;;;;;;5093545;28;20392;-71
2023/04/07 07:57:16;;;;;;;2.30;2.20;;;8.90;99.90;;;;;;5093392;28;20457;-70
2023/04/07 07:59:41;;;;;;;2.03;1.92;;;8.80;99.90;;;;;;5094912;28;20040;-70
2023/04/07 08:02:08;;;;;;;2.40;2.30;;;8.90;99.90;;;;;;5076815;28;20507;-71
2023/04/07 08:04:35;;;;;;;2.20;2.10;;;8.90;99.90;;;;;;5093332;28;20039;-70
2023/04/07 08:07:00;;;;;;;2.55;2.45;;;8.80;99.90;;;;;;5094460;28;20040;-69
2023/04/07 08:09:26;;;;;;;2.20;2.10;;;8.80;99.90;;;;;;5076632;28;20135;-74
2023/04/07 08:11:52;;;;;;;2.30;2.20;;;8.90;99.90;;;;;;5127250;27;20040;-77
2023/04/07 08:14:18;;;;;;;2.08;1.98;;;8.90;99.90;;;;;;5093415;28;20135;-69
2023/04/07 08:16:44;;;;;;;2.22;2.13;;;8.90;99.90;;;;;;5075785;28;20051;-71
2023/04/07 08:19:10;;;;;;;2.13;2.03;;;9.00;99.90;;;;;;5076049;28;20056;-72
2023/04/07 08:21:36;;;;;;;2.30;2.20;;;9.00;99.90;;;;;;5093289;28;20036;-71
2023/04/07 08:24:02;;;;;;;2.13;2.03;;;9.00;99.90;;;;;;5127338;27;20093;-71
2023/04/07 08:26:28;;;;;;;2.28;2.17;;;9.10;99.90;;;;;;5094400;28;20499;-71
2023/04/07 08:28:54;;;;;;;2.20;2.10;;;9.00;99.90;;;;;;5094094;28;20083;-70
2023/04/07 08:31:20;;;;;;;2.15;2.05;;;9.00;99.90;;;;;;5094076;28;20484;-72
2023/04/07 08:33:46;;;;;;;2.20;2.10;;;9.00;99.90;;;;;;5094276;28;20088;-70
2023/04/07 08:36:12;;;;;;;2.35;2.25;;;9.00;99.90;;;;;;5093753;28;20329;-70
2023/04/07 08:38:37;;;;;;;2.33;2.22;;;9.00;99.90;;;;;;5092510;28;20047;-70
2023/04/07 08:41:12;;;;;;;2.30;2.20;;;9.00;99.90;;;;;;5093897;28;20451;-69
2023/04/07 08:43:38;;;;;;;2.35;2.25;;;9.00;99.90;;;;;;5094196;28;20074;-70
2023/04/07 08:46:06;;;;;;;2.40;2.30;;;9.10;99.90;;;;;;5092620;28;20040;-70
2023/04/07 08:48:33;;;;;;;2.50;2.33;;;9.00;99.90;;;;;;5075628;28;20047;-71
2023/04/07 08:51:04;;;;;;;2.95;2.75;;;9.00;99.90;;;;;;5092470;28;20476;-73
2023/04/07 08:53:42;;;;;;;2.40;2.30;;;9.10;99.90;;;;;;5092424;28;20537;-68
2023/04/07 08:56:10;;;;;;;2.50;2.40;;;9.20;99.90;;;;;;5092636;28;20472;-70
2023/04/07 08:58:36;;;;;;;2.60;2.50;;;9.20;99.90;;;;;;5093117;28;20121;-70
2023/04/07 09:01:05;;;;;;;2.20;2.10;;;9.20;99.90;;;;;;5092337;28;20040;-70
2023/04/07 09:03:32;;;;;;;3.20;3.00;;;9.30;99.90;;;;;;5075633;28;20040;-70
2023/04/07 09:06:00;;;;;;;7.57;7.18;;;9.30;99.90;;;;;;5092127;28;20101;-70
2023/04/07 09:08:26;;;;;;;2.78;2.58;;;9.30;99.90;;;;;;5092212;28;20040;-70
2023/04/07 09:10:52;;;;;;;2.50;2.40;;;9.30;99.90;;;;;;5092185;28;20070;-70
2023/04/07 09:13:18;;;;;;;2.40;2.30;;;9.40;99.90;;;;;;5092145;28;20040;-70
2023/04/07 09:15:44;;;;;;;2.40;2.30;;;9.40;99.90;;;;;;5093634;28;20062;-70
2023/04/07 09:18:10;;;;;;;2.28;2.17;;;9.40;99.90;;;;;;5126299;27;20192;-70
2023/04/07 09:20:56;;;;;;;2.10;2.00;;;9.50;99.90;;;;;;5092094;28;20399;-70
2023/04/07 09:23:34;;;;;;;2.08;1.98;;;9.50;99.90;;;;;;5092122;28;20069;-70
2023/04/07 09:26:23;;;;;;;2.53;2.42;;;9.50;99.90;;;;;;5093293;28;20040;-70
2023/04/07 09:28:58;;;;;;;2.15;2.05;;;9.50;99.90;;;;;;5097203;28;20051;-70
2023/04/07 09:31:46;;;;;;;2.20;2.10;;;9.60;99.90;;;;;;5096379;28;20055;-70
2023/04/07 09:34:27;;;;;;;2.25;2.15;;;9.60;99.90;;;;;;5097815;28;20040;-70
2023/04/07 09:36:54;;;;;;;2.15;2.05;;;9.70;99.90;;;;;;5097525;28;20046;-70
2023/04/07 09:39:20;;;;;;;1.80;1.70;;;9.70;99.90;;;;;;5097604;28;20032;-70
2023/04/07 09:41:45;;;;;;;1.83;1.73;;;9.60;99.90;;;;;;5097253;28;20460;-71
2023/04/07 09:44:11;;;;;;;1.40;1.40;;;9.70;99.90;;;;;;5095977;28;20036;-71
2023/04/07 09:46:51;;;;;;;1.70;1.60;;;9.70;99.90;;;;;;5130222;27;20405;-72
2023/04/07 09:49:19;;;;;;;1.60;1.60;;;9.80;99.90;;;;;;5078996;28;20078;-72
2023/04/07 09:52:06;;;;;;;1.92;1.83;;;9.90;99.90;;;;;;5095877;28;20044;-72
2023/04/07 09:54:36;;;;;;;3.10;2.90;;;9.90;99.90;;;;;;5097624;28;20075;-68
2023/04/07 09:57:03;;;;;;;3.15;2.95;;;10.10;99.90;;;;;;5097304;28;20130;-71
2023/04/07 09:59:30;;;;;;;1.80;1.70;;;10.10;99.90;;;;;;5097256;28;20065;-71
2023/04/07 10:01:56;;;;;;;2.03;1.92;;;10.20;99.90;;;;;;5097203;28;20107;-71
2023/04/07 10:04:23;;;;;;;1.88;1.77;;;10.20;99.90;;;;;;5079043;28;20102;-71
2023/04/07 10:06:49;;;;;;;1.83;1.73;;;10.20;99.90;;;;;;5095617;28;20420;-71
2023/04/07 10:09:16;;;;;;;1.92;1.80;;;10.20;99.90;;;;;;5095524;28;20036;-71
2023/04/07 10:11:43;;;;;;;1.98;1.88;;;10.20;99.90;;;;;;5097162;28;20053;-71
2023/04/07 10:14:10;;;;;;;1.67;1.58;;;10.20;99.90;;;;;;5096970;28;20089;-71
2023/04/07 10:16:41;;;;;;;1.48;1.48;;;10.20;99.90;;;;;;5096956;28;20036;-71
2023/04/07 10:19:07;;;;;;;1.58;1.55;;;10.20;99.90;;;;;;5096808;28;20075;-71
2023/04/07 10:21:39;;;;;;;1.70;1.63;;;10.20;99.90;;;;;;5096518;28;20396;-71
2023/04/07 10:24:19;;;;;;;2.08;1.98;;;10.20;99.90;;;;;;5095459;28;20488;-71
2023/04/07 10:26:52;;;;;;;1.77;1.70;;;10.20;99.90;;;;;;5095295;28;20131;-71
2023/04/07 10:29:18;;;;;;;1.80;1.70;;;10.20;99.90;;;;;;5095178;28;20064;-71
2023/04/07 10:31:45;;;;;;;1.80;1.70;;;10.30;99.90;;;;;;5095076;28;20046;-71
2023/04/07 10:34:11;;;;;;;1.75;1.67;;;10.40;99.90;;;;;;5095057;28;20055;-74
2023/04/07 10:37:12;;;;;;;2.00;1.90;;;10.50;99.90;;;;;;5078097;28;20040;-75
2023/04/07 10:39:38;;;;;;;1.63;1.63;;;10.50;99.90;;;;;;5094892;28;20048;-75
2023/04/07 10:42:04;;;;;;;1.70;1.60;;;10.60;99.90;;;;;;5094966;28;20050;-75
2023/04/07 10:44:41;;;;;;;1.60;1.50;;;10.60;99.90;;;;;;5095310;28;20039;-76
2023/04/07 10:47:07;;;;;;;1.60;1.50;;;10.70;99.90;;;;;;5094669;28;20071;-74
2023/04/07 10:49:34;;;;;;;1.58;1.58;;;10.80;99.90;;;;;;5096316;28;20079;-74
2023/04/07 10:52:11;;;;;;;1.42;1.42;;;10.80;99.90;;;;;;5096374;28;20039;-74
2023/04/07 10:54:38;;;;;;;1.60;1.50;;;10.80;99.90;;;;;;5094795;28;20040;-76
2023/04/07 10:57:04;;;;;;;1.52;1.48;;;10.80;99.90;;;;;;5095915;28;20051;-75
2023/04/07 10:59:31;;;;;;;1.40;1.40;;;10.80;99.90;;;;;;5094652;28;20399;-75
2023/04/07 11:02:22;;;;;;;1.55;1.55;;;10.80;99.90;;;;;;5096143;28;20036;-74
2023/04/07 11:04:48;;;;;;;1.50;1.50;;;10.80;99.90;;;;;;5093008;28;20084;-73
2023/04/07 11:07:15;;;;;;;1.63;1.52;;;10.80;99.90;;;;;;5095849;28;20086;-78
2023/04/07 11:09:41;;;;;;;1.65;1.58;;;10.70;99.90;;;;;;5094319;28;20083;-77
2023/04/07 11:12:07;;;;;;;1.75;1.65;;;10.70;99.90;;;;;;5094117;28;20150;-74
2023/04/07 11:14:36;;;;;;;1.40;1.40;;;10.70;99.90;;;;;;5094511;28;20423;-69
2023/04/07 11:17:02;;;;;;;1.50;1.48;;;10.70;99.90;;;;;;5077310;28;20048;-71
2023/04/07 11:19:28;;;;;;;1.40;1.40;;;10.90;99.90;;;;;;5095419;28;20484;-71
2023/04/07 11:22:14;;;;;;;1.60;1.50;;;11.00;99.90;;;;;;5094132;28;20123;-71
2023/04/07 11:24:40;;;;;;;1.50;1.50;;;11.10;99.90;;;;;;5094108;28;20040;-69
2023/04/07 11:27:11;;;;;;;1.17;1.17;;;11.20;99.90;;;;;;5093989;28;20349;-70
2023/04/07 11:29:37;;;;;;;1.00;1.00;;;11.30;99.90;;;;;;5094128;28;20125;-71
2023/04/07 11:32:03;;;;;;;1.20;1.20;;;11.50;99.90;;;;;;5095816;28;20076;-71
2023/04/07 11:34:36;;;;;;;1.00;1.00;;;11.60;99.90;;;;;;5094015;28;20157;-71
2023/04/07 11:37:22;;;;;;;1.00;1.00;;;11.70;99.90;;;;;;5095243;28;20040;-71
2023/04/07 11:39:58;;;;;;;1.10;1.10;;;11.70;99.90;;;;;;5093800;28;20052;-71
2023/04/07 11:42:35;;;;;;;1.00;1.00;;;11.70;99.90;;;;;;5094949;28;20464;-71
2023/04/07 11:45:00;;;;;;;1.25;1.25;;;11.70;99.90;;;;;;5128098;27;20040;-72
2023/04/07 11:47:35;;;;;;;1.35;1.35;;;11.80;99.90;;;;;;5095169;28;20494;-70
2023/04/07 11:50:01;;;;;;;1.10;1.10;;;11.70;99.90;;;;;;5092942;28;20047;-70
2023/04/07 11:52:27;;;;;;;1.55;1.00;;;11.70;99.90;;;;;;5093888;28;20046;-70
2023/04/07 11:54:53;;;;;;;0.98;0.98;;;11.70;99.90;;;;;;5093568;28;20040;-70
2023/04/07 11:57:26;;;;;;;0.90;0.90;;;11.70;99.90;;;;;;5093755;28;20048;-71
2023/04/07 12:00:09;;;;;;;0.90;0.90;;;11.70;99.90;;;;;;5093735;28;20075;-70
2023/04/07 12:02:35;;;;;;;0.90;0.90;;;11.70;99.90;;;;;;5093449;28;20040;-70
2023/04/07 12:05:01;;;;;;;0.90;0.90;;;11.80;99.90;;;;;;5093609;28;20098;-70
2023/04/07 12:07:27;;;;;;;0.75;0.75;;;11.90;99.90;;;;;;5094464;28;20479;-70
2023/04/07 12:09:53;;;;;;;0.80;0.80;;;11.90;99.90;;;;;;5094770;28;20036;-71
2023/04/07 12:12:29;;;;;;;0.85;0.85;;;12.00;99.90;;;;;;5076366;28;20135;-70
2023/04/07 12:14:55;;;;;;;2.45;1.40;;;12.10;99.90;;;;;;5093147;28;20048;-69
2023/04/07 12:17:23;;;;;;;1.08;0.98;;;12.20;99.90;;;;;;5076434;28;20048;-70
2023/04/07 12:19:48;;;;;;;0.90;0.90;;;12.20;99.90;;;;;;5094613;28;20043;-69
2023/04/07 12:22:14;;;;;;;0.93;0.93;;;12.20;99.90;;;;;;5093272;28;20480;-70
2023/04/07 12:24:40;;;;;;;0.95;0.95;;;12.30;99.90;;;;;;5094508;28;20043;-70
2023/04/07 12:27:06;;;;;;;0.80;0.80;;;12.40;99.90;;;;;;5092810;28;20123;-70
2023/04/07 12:29:33;;;;;;;0.90;0.90;;;12.30;99.90;;;;;;5092817;28;20040;-70
2023/04/07 12:31:58;;;;;;;0.88;0.88;;;12.30;99.90;;;;;;5127246;27;20101;-70
2023/04/07 12:34:24;;;;;;;1.00;0.95;;;12.30;99.90;;;;;;5093172;28;20484;-70
2023/04/07 12:36:50;;;;;;;0.80;0.80;;;12.20;99.90;;;;;;5093154;28;20047;-70
2023/04/07 12:39:16;;;;;;;1.17;0.95;;;12.30;99.90;;;;;;5093979;28;20427;-70
2023/04/07 12:41:43;;;;;;;0.90;0.90;;;12.30;99.90;;;;;;5092876;28;20054;-70
2023/04/07 12:44:09;;;;;;;0.90;0.90;;;12.40;99.90;;;;;;5092703;28;20043;-70
2023/04/07 12:46:35;;;;;;;0.85;0.85;;;12.40;99.90;;;;;;5092534;28;20044;-71
2023/04/07 12:49:00;;;;;;;0.90;0.90;;;12.50;99.90;;;;;;5094114;28;20036;-71
2023/04/07 12:51:27;;;;;;;0.95;0.95;;;12.70;99.90;;;;;;5126625;27;20040;-70
2023/04/07 12:53:53;;;;;;;0.80;0.80;;;12.80;99.90;;;;;;5094215;28;20048;-71
2023/04/07 12:56:21;;;;;;;1.00;1.00;;;12.90;99.90;;;;;;5092461;28;20044;-71